Main page
METAR-TAF:

METAR-TAF

Airports :

Vitebsk Vostochny Airport

Vitebsk, Belarus

latitude: 55-10N, longitude: 030-13E, elevation: 176 m

Current weather observation

The report was made 6 hours and 58 minutes ago, at 16:00 UTC
Wind 16 kt from the Southeast with gusts up to 21 kt
Temperature -2°C
Humidity 69%
Pressure 1038 hPa
Visibility 10 km or more
Broken clouds at a height of 2100 ft

METAR: UMII 211600Z 14008G11MPS 9999 BKN021 M02/M07 Q1038 R05/190065 NOSIG

Time: 01:58 (22:58 UTC)

Forecast

The report was made 8 hours and 58 minutes ago, at 14:00 UTC
Forecast valid from 21 at 15 UTC to 21 at 24 UTC
Wind 14 kt from the Southeast with gusts up to 23 kt
Visibility: 6000 m
Broken clouds at a height of 700 ft
Temporary
from 21 at 15 UTC to 21 at 18 UTC
Visibility: 3000 m
Broken clouds at a height of 500 ft
Broken clouds at a height of 1000 ft, Cumulonimbus.
light snow showers, Blowing snow

TAF: UMII 211400Z 2115/2124 14007G12MPS 6000 BKN007 TEMPO 2115/2118 3000 -SHSN BLSN BKN005 BKN010CB

Weather observations and forecasts of more than 4000 airports (METAR and TAF reports).

The available stations are represented by yellow and red dots on the map.

Hover mouse over dot to see the name of the station.

Then click to see weather observations and forecasts.

To change the map : click on the green buttons with a black cross to zoom in, on the green button with a dash to zoom out, or on the green arrows for adjacent maps.


METAR-TAF: